Time;durP1;ratioP1;P1;durP2;ratioP2;P2;SDS_P1;SDS_P2;PMS_P1;PMS_P2;Temp;Humidity;BMP_temperature;BMP_pressure;BME280_temperature;BME280_humidity;BME280_pressure;Samples;Min_cycle;Max_cycle;Signal;HPM_P1;HPM_P2
2021/09/01 00:00:24;;;;;;;4.90;3.72;;;;;;;10.21;100.00;99854.19;4992926;28;20043;-80
2021/09/01 00:02:54;;;;;;;8.40;4.43;;;;;;;10.25;100.00;99860.97;4992600;28;20502;-81
2021/09/01 00:05:21;;;;;;;5.43;4.10;;;;;;;10.35;100.00;99869.88;4993168;28;20050;-80
2021/09/01 00:07:48;;;;;;;6.57;4.82;;;;;;;10.33;100.00;99871.00;4991818;28;20449;-80
2021/09/01 00:10:15;;;;;;;7.53;4.35;;;;;;;10.19;100.00;99848.06;4992950;28;20136;-80
2021/09/01 00:12:43;;;;;;;7.28;5.22;;;;;;;10.46;100.00;99876.84;4991790;28;20105;-80
2021/09/01 00:15:35;;;;;;;9.32;4.65;;;;;;;10.52;100.00;99869.91;4981416;28;20134;-80
2021/09/01 00:18:09;;;;;;;7.78;4.22;;;;;;;10.41;100.00;99871.09;4987812;28;20755;-80
2021/09/01 00:20:36;;;;;;;7.57;4.40;;;;;;;10.33;100.00;99880.06;4982974;28;20047;-80
2021/09/01 00:23:03;;;;;;;6.82;4.50;;;;;;;10.27;100.00;99878.81;4987682;28;20042;-80
2021/09/01 00:25:30;;;;;;;6.90;4.35;;;;;;;10.26;100.00;99876.28;4990561;28;20046;-80
2021/09/01 00:28:04;;;;;;;7.20;4.07;;;;;;;10.33;100.00;99893.66;4992232;28;20050;-80
2021/09/01 00:30:34;;;;;;;5.43;4.28;;;;;;;10.32;100.00;99885.63;4992795;28;20054;-81
2021/09/01 00:33:01;;;;;;;8.32;3.95;;;;;;;10.29;100.00;99873.22;4992148;28;20058;-81
2021/09/01 00:35:32;;;;;;;7.70;4.03;;;;;;;10.17;100.00;99874.56;4991666;28;20110;-81
2021/09/01 00:37:59;;;;;;;11.25;4.50;;;;;;;10.04;100.00;99875.00;4992440;28;20050;-80
2021/09/01 00:40:28;;;;;;;6.43;4.10;;;;;;;10.03;100.00;99884.19;4992496;28;20050;-79
2021/09/01 00:42:56;;;;;;;9.18;4.47;;;;;;;9.86;100.00;99867.81;4987192;28;20050;-79
2021/09/01 00:45:23;;;;;;;6.43;4.63;;;;;;;9.96;100.00;99873.09;4988190;28;20093;-80
2021/09/01 00:47:50;;;;;;;8.07;4.00;;;;;;;9.84;100.00;99864.41;4992244;28;20407;-79
2021/09/01 00:50:16;;;;;;;8.10;4.25;;;;;;;9.98;100.00;99873.81;4990927;28;20042;-79
2021/09/01 00:52:44;;;;;;;7.63;4.90;;;;;;;10.03;100.00;99867.88;4991267;28;20050;-79
2021/09/01 00:55:13;;;;;;;7.88;4.28;;;;;;;10.00;100.00;99868.22;4990600;28;20050;-79
2021/09/01 00:57:45;;;;;;;9.55;4.15;;;;;;;10.03;100.00;99863.28;4991917;28;20093;-79
2021/09/01 01:00:33;;;;;;;10.18;4.38;;;;;;;10.15;100.00;99874.72;4991901;28;20415;-79
2021/09/01 01:03:00;;;;;;;10.18;4.25;;;;;;;10.21;100.00;99882.22;4992088;28;20056;-79
2021/09/01 01:05:27;;;;;;;5.78;4.22;;;;;;;10.19;100.00;99875.22;4988361;28;20487;-80
2021/09/01 01:07:55;;;;;;;9.35;4.60;;;;;;;10.07;100.00;99870.09;4986855;28;20042;-80
2021/09/01 01:10:22;;;;;;;6.53;3.92;;;;;;;9.99;100.00;99859.19;4991822;28;20865;-79
2021/09/01 01:12:49;;;;;;;8.25;4.85;;;;;;;10.10;100.00;99882.50;4990042;28;20046;-79
2021/09/01 01:15:16;;;;;;;8.15;4.63;;;;;;;10.03;100.00;99879.59;4992331;28;20057;-79
2021/09/01 01:17:43;;;;;;;8.90;5.07;;;;;;;9.90;100.00;99860.19;4991053;28;20057;-79
2021/09/01 01:20:10;;;;;;;10.00;4.53;;;;;;;9.83;100.00;99880.84;4990888;28;20057;-79
2021/09/01 01:22:37;;;;;;;11.88;4.78;;;;;;;9.81;100.00;99881.03;4972857;28;20058;-79
2021/09/01 01:25:27;;;;;;;8.45;4.18;;;;;;;9.73;100.00;99854.69;4990964;28;20054;-79
2021/09/01 01:27:54;;;;;;;7.38;4.30;;;;;;;9.74;100.00;99853.69;4987955;28;20054;-79
2021/09/01 01:30:22;;;;;;;7.90;4.13;;;;;;;9.73;100.00;99865.53;4991514;28;20062;-79
2021/09/01 01:32:51;;;;;;;5.35;4.35;;;;;;;9.83;100.00;99872.72;4990430;28;20085;-79
2021/09/01 01:35:25;;;;;;;7.00;4.68;;;;;;;9.86;100.00;99864.25;4990793;28;20561;-79
2021/09/01 01:37:52;;;;;;;6.18;4.25;;;;;;;9.85;100.00;99878.84;4991206;28;20556;-79
2021/09/01 01:40:25;;;;;;;9.43;4.65;;;;;;;9.98;100.00;99872.94;4991448;28;20054;-79
2021/09/01 01:42:54;;;;;;;15.30;4.45;;;;;;;9.77;100.00;99874.22;4991903;28;20610;-79
2021/09/01 01:45:21;;;;;;;10.13;4.90;;;;;;;9.60;100.00;99858.88;4990666;28;20063;-79
2021/09/01 01:47:49;;;;;;;6.93;4.68;;;;;;;9.61;100.00;99858.69;4991059;28;20042;-79
2021/09/01 01:50:51;;;;;;;7.38;4.38;;;;;;;9.62;100.00;99874.00;4990538;28;20485;-79
2021/09/01 01:53:18;;;;;;;8.18;4.75;;;;;;;9.66;100.00;99871.78;4983389;28;20113;-79
2021/09/01 01:55:46;;;;;;;10.98;4.90;;;;;;;9.73;100.00;99878.28;4995499;28;20057;-79
2021/09/01 01:58:13;;;;;;;5.35;4.43;;;;;;;9.72;100.00;99884.72;4994931;28;20054;-79
2021/09/01 02:00:47;;;;;;;8.13;4.20;;;;;;;9.72;100.00;99879.28;4993591;28;20465;-79
2021/09/01 02:03:14;;;;;;;7.65;4.50;;;;;;;9.69;100.00;99875.00;4995206;28;20406;-79
2021/09/01 02:05:41;;;;;;;9.63;4.47;;;;;;;9.86;100.00;99892.25;4995068;28;20046;-79
2021/09/01 02:08:08;;;;;;;9.88;4.47;;;;;;;9.78;100.00;99875.91;4995295;28;20050;-79
2021/09/01 02:10:34;;;;;;;8.02;4.78;;;;;;;9.70;100.00;99873.19;4995089;28;20066;-79
2021/09/01 02:13:03;;;;;;;7.55;4.65;;;;;;;9.73;100.00;99886.44;4995091;28;20530;-79
2021/09/01 02:15:30;;;;;;;4.97;3.88;;;;;;;9.58;100.00;99875.31;4994648;28;20405;-78
2021/09/01 02:18:03;;;;;;;7.65;4.50;;;;;;;9.50;100.00;99867.97;4995029;28;20493;-79
2021/09/01 02:20:32;;;;;;;11.15;5.60;;;;;;;9.46;100.00;99874.72;4995285;28;20061;-78
2021/09/01 02:22:59;;;;;;;5.88;3.95;;;;;;;9.38;100.00;99878.25;4995528;28;20050;-79
2021/09/01 02:25:29;;;;;;;8.98;4.45;;;;;;;9.60;100.00;99889.56;4994277;28;20468;-78
2021/09/01 02:27:56;;;;;;;;;;;;;;;9.53;100.00;99886.66;4994695;28;20050;-79
2021/09/01 02:30:24;;;;;;;5.53;4.30;;;;;;;9.49;100.00;99885.25;4995335;28;19933;-79
2021/09/01 02:32:51;;;;;;;8.20;4.65;;;;;;;9.66;100.00;99896.22;4995043;28;20235;-79
2021/09/01 02:35:18;;;;;;;11.60;4.55;;;;;;;9.64;100.00;99881.97;4993999;28;20113;-79
2021/09/01 02:37:45;;;;;;;6.15;4.15;;;;;;;9.87;100.00;99898.53;4992819;28;20046;-79
2021/09/01 02:40:13;;;;;;;10.77;4.30;;;;;;;9.79;100.00;99883.06;4995267;28;20116;-79
2021/09/01 02:42:44;;;;;;;5.63;4.30;;;;;;;9.79;100.00;99890.38;4994508;28;20042;-79
2021/09/01 02:45:11;;;;;;;5.60;4.18;;;;;;;9.76;100.00;99871.69;4994595;28;20053;-79
2021/09/01 02:47:39;;;;;;;7.30;4.25;;;;;;;9.73;100.00;99876.41;4993897;28;20054;-79
2021/09/01 02:50:09;;;;;;;6.28;4.70;;;;;;;9.85;100.00;99887.84;4994473;28;20490;-80
2021/09/01 02:52:36;;;;;;;6.97;4.72;;;;;;;9.95;100.00;99900.44;4978532;28;20496;-79
2021/09/01 02:55:02;;;;;;;6.32;4.55;;;;;;;10.00;100.00;99896.22;4994412;28;20046;-80
2021/09/01 02:57:29;;;;;;;7.25;4.60;;;;;;;9.89;100.00;99885.63;4994576;28;20053;-79
2021/09/01 02:59:56;;;;;;;7.47;4.57;;;;;;;9.90;100.00;99879.19;4994093;28;20458;-80
2021/09/01 03:02:39;;;;;;;8.32;4.07;;;;;;;10.14;100.00;99897.47;4994522;28;20054;-79
2021/09/01 03:05:07;;;;;;;7.22;4.55;;;;;;;10.25;100.00;99896.31;4990984;28;20046;-79
2021/09/01 03:07:33;;;;;;;10.15;4.60;;;;;;;10.00;100.00;99885.34;4993691;28;20170;-79
2021/09/01 03:10:00;;;;;;;7.13;4.00;;;;;;;9.99;100.00;99886.38;4994394;28;20049;-79
2021/09/01 03:12:27;;;;;;;10.18;4.13;;;;;;;9.98;100.00;99898.25;4993420;28;20062;-79
2021/09/01 03:14:54;;;;;;;11.57;5.40;;;;;;;10.07;100.00;99889.13;4994087;28;20517;-79
2021/09/01 03:17:20;;;;;;;7.93;4.80;;;;;;;10.12;100.00;99902.22;4993919;28;20063;-79
2021/09/01 03:19:49;;;;;;;8.18;5.05;;;;;;;10.22;100.00;99902.94;4994068;28;20042;-79
2021/09/01 03:22:15;;;;;;;8.57;4.40;;;;;;;10.22;100.00;99894.78;4994249;28;20046;-79
2021/09/01 03:24:42;;;;;;;6.45;4.93;;;;;;;10.17;100.00;99893.56;4993846;28;20340;-79
2021/09/01 03:27:09;;;;;;;10.75;5.28;;;;;;;10.35;100.00;99907.91;4993735;28;20066;-79
2021/09/01 03:29:36;;;;;;;10.10;4.93;;;;;;;10.13;100.00;99893.03;4993668;28;20075;-79
2021/09/01 03:32:02;;;;;;;10.50;5.13;;;;;;;10.11;100.00;99889.63;4993366;28;20100;-79
2021/09/01 03:34:29;;;;;;;17.50;6.88;;;;;;;10.15;100.00;99896.44;4992743;28;20043;-79
2021/09/01 03:37:00;;;;;;;26.45;7.43;;;;;;;10.34;100.00;99899.94;4993880;28;20050;-79
2021/09/01 03:39:27;;;;;;;43.40;7.97;;;;;;;10.34;100.00;99895.38;4993452;28;20065;-78
2021/09/01 03:41:54;;;;;;;21.08;6.60;;;;;;;10.25;100.00;99893.59;4992681;28;20046;-79
2021/09/01 03:44:21;;;;;;;18.02;7.20;;;;;;;10.34;100.00;99906.25;4992807;28;20058;-79
2021/09/01 03:46:47;;;;;;;21.92;7.13;;;;;;;10.35;100.00;99916.06;4993534;28;20066;-79
2021/09/01 03:49:17;;;;;;;32.70;7.25;;;;;;;10.13;100.00;99903.06;4992585;28;20050;-79
2021/09/01 03:51:44;;;;;;;45.00;8.95;;;;;;;10.26;100.00;99911.59;4993329;28;20137;-79
2021/09/01 03:54:20;;;;;;;38.17;8.10;;;;;;;10.38;100.00;99917.63;4992356;28;20249;-79
2021/09/01 03:56:47;;;;;;;22.00;7.82;;;;;;;10.38;100.00;99896.72;4993794;28;20050;-79
2021/09/01 03:59:14;;;;;;;29.05;7.95;;;;;;;10.38;100.00;99902.16;4992293;28;20046;-79
2021/09/01 04:01:41;;;;;;;49.05;9.90;;;;;;;10.31;100.00;99890.19;4993288;28;20046;-78
2021/09/01 04:04:08;;;;;;;42.95;9.63;;;;;;;10.47;100.00;99908.47;4993204;28;20542;-79
2021/09/01 04:06:35;;;;;;;45.28;8.82;;;;;;;10.47;100.00;99918.50;4992056;28;20510;-79
2021/09/01 04:09:02;;;;;;;66.38;8.85;;;;;;;10.40;100.00;99910.13;4992684;28;20073;-79
2021/09/01 04:11:30;;;;;;;121.93;13.02;;;;;;;10.40;100.00;99918.28;4990840;28;20054;-79
2021/09/01 04:13:57;;;;;;;77.32;9.32;;;;;;;10.37;100.00;99914.06;4993831;28;20061;-80
2021/09/01 04:16:24;;;;;;;103.65;9.27;;;;;;;10.38;100.00;99913.03;4993206;28;20057;-79
2021/09/01 04:18:51;;;;;;;113.65;9.48;;;;;;;10.42;100.00;99916.28;4992720;28;20375;-78
2021/09/01 04:21:17;;;;;;;80.15;10.02;;;;;;;10.37;100.00;99900.47;4993604;28;20054;-78
2021/09/01 04:23:44;;;;;;;56.15;9.38;;;;;;;10.47;100.00;99918.50;4990766;28;20482;-79
2021/09/01 04:26:11;;;;;;;111.82;9.95;;;;;;;10.52;100.00;99919.69;4993296;28;20050;-79
2021/09/01 04:28:39;;;;;;;50.28;9.27;;;;;;;10.52;100.00;99910.69;4993540;28;20484;-79
2021/09/01 04:31:06;;;;;;;67.22;9.98;;;;;;;10.59;100.00;99920.72;4993617;28;20054;-79
2021/09/01 04:33:33;;;;;;;100.35;10.77;;;;;;;10.68;100.00;99924.31;4993217;28;20050;-79
2021/09/01 04:36:00;;;;;;;96.10;11.90;;;;;;;10.70;100.00;99913.28;4993244;28;20046;-78
2021/09/01 04:38:26;;;;;;;54.33;9.15;;;;;;;10.74;100.00;99930.97;4993448;28;20054;-78
2021/09/01 04:40:53;;;;;;;76.80;11.00;;;;;;;10.67;100.00;99922.59;4993026;28;20050;-78
2021/09/01 04:43:20;;;;;;;59.75;9.27;;;;;;;10.62;100.00;99920.38;4992401;28;20049;-79
2021/09/01 04:45:48;;;;;;;71.32;9.52;;;;;;;10.61;100.00;99929.59;4992660;28;20046;-79
2021/09/01 04:48:15;;;;;;;73.38;8.93;;;;;;;10.62;100.00;99916.84;4993081;28;20529;-79
2021/09/01 04:50:42;;;;;;;103.30;10.45;;;;;;;10.76;100.00;99927.06;4993024;28;20046;-79
2021/09/01 04:53:08;;;;;;;62.83;9.93;;;;;;;10.71;100.00;99926.69;4992810;28;20109;-79
2021/09/01 04:55:35;;;;;;;91.13;10.80;;;;;;;10.71;100.00;99931.31;4993006;28;20102;-79
2021/09/01 04:58:02;;;;;;;74.45;10.30;;;;;;;10.84;100.00;99934.38;4988932;28;20493;-78
2021/09/01 05:00:29;;;;;;;55.88;10.20;;;;;;;10.84;100.00;99919.91;4991967;28;20045;-78
2021/09/01 05:02:57;;;;;;;79.57;10.30;;;;;;;10.84;100.00;99922.63;4991896;28;20053;-79
2021/09/01 05:05:24;;;;;;;95.50;9.95;;;;;;;10.84;100.00;99928.94;4992761;28;20058;-79
2021/09/01 05:07:51;;;;;;;100.13;10.15;;;;;;;10.83;100.00;99937.28;4992794;28;20054;-78
2021/09/01 05:10:19;;;;;;;130.73;11.63;;;;;;;10.86;100.00;99937.78;5003649;28;20456;-79
2021/09/01 05:12:50;;;;;;;95.07;10.57;;;;;;;10.88;100.00;99938.44;4992334;28;20050;-79
2021/09/01 05:15:19;;;;;;;87.38;10.25;;;;;;;10.97;100.00;99942.03;4991801;28;20050;-79
2021/09/01 05:17:46;;;;;;;64.80;10.07;;;;;;;10.99;100.00;99940.03;4992397;28;20096;-80
2021/09/01 05:20:16;;;;;;;103.22;11.70;;;;;;;10.94;100.00;99948.69;4991651;28;20050;-79
2021/09/01 05:22:45;;;;;;;;;;;;;;;10.97;100.00;99951.06;4993508;28;20406;-79
2021/09/01 05:25:14;;;;;;;58.97;10.40;;;;;;;11.12;100.00;99939.50;4992520;28;19976;-79
2021/09/01 05:27:43;;;;;;;70.25;11.77;;;;;;;11.13;100.00;99938.50;4990910;28;20104;-79
2021/09/01 05:30:15;;;;;;;54.67;10.65;;;;;;;11.12;100.00;99940.34;4991264;28;20066;-79
2021/09/01 05:32:44;;;;;;;80.05;10.40;;;;;;;11.06;100.00;99930.13;4991832;28;20082;-81
2021/09/01 05:35:13;;;;;;;49.05;10.68;;;;;;;11.02;100.00;99919.75;4988614;28;20146;-79
2021/09/01 05:37:43;;;;;;;22.05;9.18;;;;;;;11.11;100.00;99935.06;4985995;28;20133;-79
2021/09/01 05:40:37;;;;;;;68.55;11.38;;;;;;;11.04;100.00;99945.78;4984487;28;20184;-80
2021/09/01 05:43:05;;;;;;;135.52;11.70;;;;;;;11.06;100.00;99949.19;4991905;28;20050;-79
2021/09/01 05:45:32;;;;;;;88.43;10.38;;;;;;;11.20;100.00;99949.53;4991774;28;20042;-80
2021/09/01 05:48:03;;;;;;;74.65;10.13;;;;;;;11.32;100.00;99959.06;4992309;28;20482;-79
2021/09/01 05:50:29;;;;;;;131.43;11.45;;;;;;;11.19;100.00;99940.53;4991141;28;20513;-79
2021/09/01 05:53:01;;;;;;;128.80;10.85;;;;;;;11.21;100.00;99932.19;4991421;28;20075;-80
2021/09/01 05:55:32;;;;;;;97.65;11.38;;;;;;;11.32;100.00;99945.44;4993431;28;20046;-79
2021/09/01 05:58:02;;;;;;;103.25;10.35;;;;;;;11.32;100.00;99948.16;4994008;28;20053;-79
2021/09/01 06:00:33;;;;;;;86.82;9.77;;;;;;;11.34;100.00;99941.53;4992951;28;20054;-79
2021/09/01 06:03:03;;;;;;;92.82;9.77;;;;;;;11.21;100.00;99962.97;4992373;28;20085;-80
2021/09/01 06:05:30;;;;;;;78.95;9.02;;;;;;;11.20;100.00;99942.25;4982247;28;20054;-81
2021/09/01 06:08:04;;;;;;;147.80;10.82;;;;;;;11.32;100.00;99957.19;4992100;28;20050;-78
2021/09/01 06:10:32;;;;;;;95.35;9.98;;;;;;;11.17;100.00;99934.41;4991893;28;20061;-78
2021/09/01 06:13:03;;;;;;;115.05;10.07;;;;;;;11.24;100.00;99959.06;4987712;28;20046;-78
2021/09/01 06:15:30;;;;;;;90.57;10.05;;;;;;;11.21;100.00;99943.91;4991310;28;20054;-78
2021/09/01 06:17:59;;;;;;;57.83;10.23;;;;;;;11.45;100.00;99974.88;4983824;28;20105;-78
2021/09/01 06:20:30;;;;;;;71.70;9.23;;;;;;;11.43;100.00;99963.31;4991444;28;20109;-78
2021/09/01 06:22:58;;;;;;;72.30;9.85;;;;;;;11.38;100.00;99957.53;4991732;28;20360;-78
2021/09/01 06:25:27;;;;;;;35.00;9.15;;;;;;;11.37;100.00;99948.53;4991918;28;20063;-78
2021/09/01 06:27:54;;;;;;;105.95;11.23;;;;;;;11.45;100.00;99944.94;4991759;28;20398;-78
2021/09/01 06:30:21;;;;;;;79.28;9.07;;;;;;;11.61;100.00;99960.41;4990560;28;20062;-78
2021/09/01 06:32:48;;;;;;;60.13;8.50;;;;;;;11.59;100.00;99968.75;4988597;28;20038;-80
2021/09/01 06:35:15;;;;;;;90.20;10.90;;;;;;;11.58;100.00;99956.16;4989652;28;20121;-78
2021/09/01 06:37:44;;;;;;;33.85;7.97;;;;;;;11.65;100.00;99950.84;4989699;28;20104;-78
2021/09/01 06:40:12;;;;;;;29.05;8.23;;;;;;;11.71;100.00;99960.22;4991066;28;20050;-79
2021/09/01 06:42:43;;;;;;;41.05;8.20;;;;;;;11.64;100.00;99952.75;4992495;28;20174;-79
2021/09/01 06:45:11;;;;;;;37.20;8.55;;;;;;;11.74;100.00;99973.50;4994972;28;20046;-80
2021/09/01 06:47:40;;;;;;;48.95;7.82;;;;;;;11.71;100.00;99955.63;4994222;28;20051;-80
2021/09/01 06:50:07;;;;;;;70.18;8.95;;;;;;;11.96;100.00;99972.78;4995502;28;20088;-80
2021/09/01 06:52:34;;;;;;;60.72;8.57;;;;;;;12.03;100.00;99954.72;4993408;28;20054;-80
2021/09/01 06:55:01;;;;;;;80.05;8.98;;;;;;;12.30;100.00;99971.69;4990168;28;20062;-79
2021/09/01 06:57:28;;;;;;;59.97;8.15;;;;;;;12.09;100.00;99960.50;4981135;28;20122;-79
2021/09/01 06:59:56;;;;;;;53.95;8.82;;;;;;;12.13;100.00;99965.41;4990850;28;20120;-80
2021/09/01 07:02:22;;;;;;;37.33;8.15;;;;;;;12.20;100.00;99985.50;4994764;28;20497;-79
2021/09/01 07:04:50;;;;;;;55.08;8.32;;;;;;;12.13;100.00;99983.66;4994403;28;20042;-79
2021/09/01 07:07:21;;;;;;;55.28;9.85;;;;;;;12.04;100.00;99974.66;5036414;23;20498;-79
2021/09/01 07:09:55;;;;;;;80.97;8.48;;;;;;;12.29;100.00;99980.88;4988170;28;20486;-79
2021/09/01 07:12:22;;;;;;;109.40;9.43;;;;;;;12.39;100.00;99980.69;5005522;28;20479;-79
2021/09/01 07:14:49;;;;;;;62.40;9.10;;;;;;;12.45;100.00;99968.19;4994424;28;20474;-79
2021/09/01 07:17:46;;;;;;;137.38;9.50;;;;;;;12.64;100.00;99986.00;4986008;28;20054;-80
2021/09/01 07:20:13;;;;;;;47.03;8.95;;;;;;;12.37;100.00;99980.00;4992876;28;20541;-79
2021/09/01 07:22:40;;;;;;;42.97;9.07;;;;;;;12.36;100.00;99978.28;4995919;28;20053;-79
2021/09/01 07:25:08;;;;;;;33.42;9.05;;;;;;;12.60;100.00;99985.53;4995029;28;20133;-79
2021/09/01 07:27:35;;;;;;;30.20;8.40;;;;;;;12.62;100.00;99985.34;4995748;28;20050;-79
2021/09/01 07:30:02;;;;;;;80.13;9.82;;;;;;;12.49;100.00;99970.38;4995570;28;20050;-79
2021/09/01 07:32:29;;;;;;;48.97;9.50;;;;;;;12.63;100.00;99985.19;5002571;28;20129;-79
2021/09/01 07:34:57;;;;;;;23.17;9.75;;;;;;;12.95;100.00;100001.50;4997001;28;20410;-80
2021/09/01 07:37:24;;;;;;;26.27;9.40;;;;;;;12.84;100.00;99995.47;4994960;28;20109;-79
2021/09/01 07:39:50;;;;;;;58.17;9.55;;;;;;;12.97;100.00;100008.50;4993483;28;20101;-79
2021/09/01 07:42:47;;;;;;;52.78;10.30;;;;;;;13.03;100.00;99996.84;4994883;28;20105;-79
2021/09/01 07:45:32;;;;;;;20.17;10.77;;;;;;;13.08;100.00;100004.50;4983781;28;20492;-80
2021/09/01 07:48:03;;;;;;;20.65;8.70;;;;;;;13.28;100.00;100008.47;4994960;28;20046;-79
2021/09/01 07:50:32;;;;;;;13.77;9.30;;;;;;;13.10;100.00;99995.13;4993433;28;20054;-79
2021/09/01 07:52:59;;;;;;;21.23;10.38;;;;;;;13.54;100.00;100020.09;4995760;28;20061;-80
2021/09/01 07:55:27;;;;;;;19.45;9.25;;;;;;;13.49;100.00;100003.38;4995548;28;20066;-80
2021/09/01 07:57:53;;;;;;;36.20;9.60;;;;;;;13.55;100.00;100017.19;4994143;28;20049;-79
2021/09/01 08:00:20;;;;;;;13.25;9.02;;;;;;;13.40;100.00;100016.28;4995750;28;20061;-79
2021/09/01 08:02:49;;;;;;;18.25;10.82;;;;;;;13.45;100.00;100005.66;4995683;28;20050;-80
2021/09/01 08:05:16;;;;;;;15.38;10.27;;;;;;;13.58;100.00;100013.25;4995282;28;20158;-80
2021/09/01 08:07:44;;;;;;;18.77;10.90;;;;;;;13.55;100.00;100010.84;4995486;28;20058;-80
2021/09/01 08:10:35;;;;;;;14.40;9.80;;;;;;;13.55;100.00;100002.66;4995384;28;20414;-81
2021/09/01 08:13:12;;;;;;;15.38;9.90;;;;;;;13.82;99.35;100034.03;4995105;28;20046;-80
2021/09/01 08:15:39;;;;;;;14.18;9.80;;;;;;;13.90;98.77;100028.47;4995558;28;20054;-81
2021/09/01 08:18:06;;;;;;;16.13;10.10;;;;;;;14.11;97.97;100027.75;4994328;28;20463;-81
2021/09/01 08:20:33;;;;;;;24.92;11.02;;;;;;;13.94;97.75;100018.88;4976111;28;20051;-81
2021/09/01 08:23:01;;;;;;;13.75;9.75;;;;;;;13.92;98.34;100026.38;4975409;28;20057;-80
2021/09/01 08:25:28;;;;;;;14.25;10.05;;;;;;;14.24;96.51;100034.44;4975626;28;20051;-80
2021/09/01 08:27:58;;;;;;;21.13;9.27;;;;;;;14.45;94.64;100022.75;4995101;28;20414;-80
2021/09/01 08:30:25;;;;;;;17.33;10.20;;;;;;;14.60;94.25;100023.63;4995203;28;20478;-81
2021/09/01 08:32:54;;;;;;;15.35;9.48;;;;;;;15.01;93.96;100042.25;4994755;28;20057;-81
2021/09/01 08:35:21;;;;;;;14.88;10.32;;;;;;;14.91;92.12;100027.19;4994940;28;20478;-80
2021/09/01 08:37:51;;;;;;;13.65;9.18;;;;;;;15.08;92.60;100020.41;4994194;28;22219;-80
2021/09/01 08:40:19;;;;;;;17.13;10.45;;;;;;;15.15;92.64;100023.25;4994718;28;20053;-80
2021/09/01 08:42:51;;;;;;;13.57;9.70;;;;;;;15.06;93.74;100016.19;4993081;28;20502;-80
2021/09/01 08:45:18;;;;;;;15.35;10.05;;;;;;;15.16;92.69;100027.66;4993207;28;20490;-80
2021/09/01 08:47:45;;;;;;;13.23;9.25;;;;;;;15.05;93.06;100029.03;4994271;28;20141;-80
2021/09/01 08:50:13;;;;;;;12.75;9.73;;;;;;;15.52;91.69;100030.38;4994452;28;20129;-81
2021/09/01 08:52:42;;;;;;;12.77;9.40;;;;;;;15.64;91.30;100038.06;4995092;28;20046;-81
2021/09/01 08:55:12;;;;;;;13.75;9.57;;;;;;;15.69;91.42;100041.06;4994051;28;20061;-81
2021/09/01 08:57:42;;;;;;;;;;;;;;;16.07;90.97;100038.03;4994294;28;20057;-81
2021/09/01 09:00:10;;;;;;;13.30;9.35;;;;;;;16.18;88.60;100042.13;4993625;28;19928;-81
2021/09/01 09:02:37;;;;;;;15.45;9.55;;;;;;;16.21;88.29;100048.06;4993575;28;20054;-81
2021/09/01 09:05:06;;;;;;;16.17;9.40;;;;;;;15.89;88.56;100019.34;4992723;28;20054;-81
2021/09/01 09:07:42;;;;;;;14.47;9.67;;;;;;;16.12;88.48;100040.19;4993496;28;20145;-81
2021/09/01 09:10:31;;;;;;;14.75;9.25;;;;;;;16.02;89.28;100032.31;4993549;28;20301;-81
2021/09/01 09:13:01;;;;;;;13.77;9.23;;;;;;;16.34;88.54;100036.31;4993616;28;20057;-81
2021/09/01 09:15:28;;;;;;;13.13;8.88;;;;;;;16.48;87.88;100044.63;4993379;28;20061;-81
2021/09/01 09:17:55;;;;;;;12.82;9.07;;;;;;;16.38;88.65;100029.38;4993499;28;20054;-81
2021/09/01 09:20:26;;;;;;;12.70;9.38;;;;;;;16.62;87.20;100006.06;4993399;28;20058;-81
2021/09/01 09:22:54;;;;;;;18.08;9.55;;;;;;;16.62;86.83;100002.50;4992161;28;20054;-81
2021/09/01 09:25:23;;;;;;;13.63;8.73;;;;;;;16.90;86.48;99993.34;4993275;28;20102;-82
2021/09/01 09:27:51;;;;;;;12.30;8.80;;;;;;;16.96;85.15;99993.34;4993411;28;20565;-81
2021/09/01 09:30:27;;;;;;;13.73;9.15;;;;;;;17.07;86.09;100011.16;4993424;28;20137;-81
2021/09/01 09:32:56;;;;;;;12.48;9.15;;;;;;;17.21;84.75;100006.53;4993298;28;20054;-81
2021/09/01 09:35:23;;;;;;;12.15;8.68;;;;;;;17.38;86.05;100001.47;4993167;28;20050;-81
2021/09/01 09:38:01;;;;;;;15.93;9.55;;;;;;;17.66;84.28;100005.97;4992280;28;20478;-82
2021/09/01 09:40:29;;;;;;;12.60;8.98;;;;;;;17.59;84.14;100002.34;4993514;28;20630;-81
2021/09/01 09:42:56;;;;;;;13.35;9.52;;;;;;;17.36;84.59;100013.72;4993046;28;20058;-81
2021/09/01 09:45:30;;;;;;;14.75;9.05;;;;;;;17.23;85.74;99993.41;4992933;28;20042;-81
2021/09/01 09:47:57;;;;;;;13.50;9.05;;;;;;;17.06;86.43;100003.94;4992970;28;20053;-81
2021/09/01 09:50:24;;;;;;;12.48;8.65;;;;;;;16.87;87.49;99999.25;4992271;28;20116;-82
2021/09/01 09:52:52;;;;;;;10.45;8.75;;;;;;;16.85;87.60;99993.91;4989701;28;20042;-82
2021/09/01 09:55:20;;;;;;;14.68;9.05;;;;;;;16.82;87.34;99999.81;4992801;28;20109;-82
2021/09/01 09:57:49;;;;;;;11.95;8.85;;;;;;;16.89;87.28;99989.75;4992839;28;20054;-82
2021/09/01 10:00:16;;;;;;;14.75;8.90;;;;;;;16.92;87.81;99981.09;4993098;28;20054;-82
2021/09/01 10:02:45;;;;;;;14.45;8.63;;;;;;;17.16;87.60;100003.53;4992640;28;20101;-82
2021/09/01 10:05:22;;;;;;;15.00;9.15;;;;;;;16.87;87.33;99986.34;4993097;28;20397;-81
2021/09/01 10:07:48;;;;;;;11.15;9.20;;;;;;;17.03;87.23;99996.13;4992900;28;20050;-82
2021/09/01 10:10:16;;;;;;;13.68;9.38;;;;;;;16.89;88.23;99998.00;4979341;28;20487;-82
2021/09/01 10:12:45;;;;;;;16.00;9.25;;;;;;;16.85;88.01;99991.19;4973365;28;20058;-82
2021/09/01 10:15:16;;;;;;;12.48;9.02;;;;;;;16.93;88.59;99985.50;4973889;28;20043;-82
2021/09/01 10:17:47;;;;;;;14.95;8.13;;;;;;;17.06;87.19;99987.47;4993806;28;20054;-82
2021/09/01 10:20:17;;;;;;;12.80;8.40;;;;;;;17.06;87.13;99981.13;4996947;28;20084;-82
2021/09/01 10:22:44;;;;;;;10.73;7.47;;;;;;;17.12;87.57;99989.38;4996510;28;20055;-82
2021/09/01 10:25:33;;;;;;;11.38;8.13;;;;;;;17.26;87.31;99979.25;4996343;28;20049;-82
2021/09/01 10:28:32;;;;;;;14.25;8.40;;;;;;;17.28;88.13;99979.03;4995789;28;20050;-82
2021/09/01 10:31:24;;;;;;;11.30;7.67;;;;;;;17.49;86.58;99989.00;4996477;28;20569;-82
2021/09/01 10:33:54;;;;;;;10.63;7.32;;;;;;;17.39;86.88;99969.34;4996058;28;20297;-82
2021/09/01 10:36:49;;;;;;;10.88;7.13;;;;;;;17.55;88.44;99982.66;4996669;28;20137;-82
2021/09/01 10:39:44;;;;;;;13.27;7.45;;;;;;;17.55;88.50;99963.41;4996088;28;20058;-82
2021/09/01 10:42:47;;;;;;;10.77;6.88;;;;;;;17.86;87.11;99970.19;4995583;28;20046;-82
2021/09/01 10:45:16;;;;;;;10.57;6.45;;;;;;;18.10;86.41;99973.38;4996265;28;20194;-82
2021/09/01 10:48:03;;;;;;;8.80;6.50;;;;;;;17.99;84.68;99958.34;4996005;28;20046;-82
2021/09/01 10:50:33;;;;;;;10.85;6.50;;;;;;;18.20;84.44;99969.13;4996387;28;20046;-82
2021/09/01 10:53:04;;;;;;;7.00;5.18;;;;;;;18.51;81.40;99974.94;4996018;28;20053;-82
2021/09/01 10:55:33;;;;;;;10.50;5.47;;;;;;;19.10;78.61;99970.25;4996135;28;20053;-82
2021/09/01 10:58:20;;;;;;;6.95;4.82;;;;;;;19.70;74.72;99968.97;4995520;28;20042;-82
2021/09/01 11:00:53;;;;;;;9.45;4.65;;;;;;;19.90;74.41;99966.91;4996219;28;20410;-82
2021/09/01 11:03:30;;;;;;;10.40;4.13;;;;;;;20.10;71.36;99965.88;4995794;28;20046;-82
2021/09/01 11:06:20;;;;;;;6.93;3.88;;;;;;;20.16;70.37;99964.97;4995930;28;20054;-82
2021/09/01 11:09:07;;;;;;;7.50;4.00;;;;;;;20.12;69.44;99964.56;4995736;28;20042;-83
2021/09/01 11:11:51;;;;;;;6.63;4.18;;;;;;;20.19;68.65;99945.19;4995494;28;20585;-83
2021/09/01 11:14:31;;;;;;;5.45;4.05;;;;;;;19.82;66.53;99942.34;4995458;28;20058;-82
2021/09/01 11:16:58;;;;;;;;;;;;;;;19.88;65.92;99955.25;4996015;28;20046;-82
2021/09/01 11:19:25;;;;;;;5.32;3.83;;;;;;;19.60;67.82;99958.44;4995536;28;19922;-82
2021/09/01 11:21:55;;;;;;;5.93;3.40;;;;;;;19.45;64.90;99947.72;4995897;28;20050;-82
2021/09/01 11:24:22;;;;;;;7.43;3.70;;;;;;;19.37;71.67;99959.88;4995221;28;20046;-82
2021/09/01 11:26:54;;;;;;;7.97;3.63;;;;;;;19.56;71.92;99951.69;4994619;28;20054;-82
2021/09/01 11:29:30;;;;;;;6.68;3.65;;;;;;;19.51;66.90;99946.00;4995732;28;20069;-81
2021/09/01 11:31:57;;;;;;;6.55;4.00;;;;;;;19.74;69.01;99971.06;4995262;28;20054;-82
2021/09/01 11:34:24;;;;;;;5.03;3.35;;;;;;;19.74;67.60;99953.66;4995295;28;20366;-82